createdAt,value
2023-01-18T00:00:11.798Z,98470.22
2023-01-18T00:00:33.916Z,98475.47
2023-01-18T00:01:00.337Z,98471.06
2023-01-18T00:01:22.985Z,98463.44
2023-01-18T00:01:44.714Z,98464.84
2023-01-18T00:02:06.432Z,98476.22
2023-01-18T00:02:28.343Z,98470.94
2023-01-18T00:02:50.517Z,98473.38
2023-01-18T00:03:14.304Z,98472.59
2023-01-18T00:03:38.145Z,98461.41
2023-01-18T00:04:00.032Z,98473.38
2023-01-18T00:04:21.756Z,98472.59
2023-01-18T00:04:44.546Z,98473.44
2023-01-18T00:05:06.969Z,98468.25
2023-01-18T00:05:28.668Z,98471.66
2023-01-18T00:05:50.382Z,98472.53
2023-01-18T00:06:13.424Z,98470.81
2023-01-18T00:06:35.431Z,98454.72
2023-01-18T00:06:57.508Z,98473.44
2023-01-18T00:07:19.129Z,98473.38
2023-01-18T00:07:41.765Z,98475.06
2023-01-18T00:08:03.487Z,98464.50
2023-01-18T00:08:25.292Z,98462.00
2023-01-18T00:08:47.191Z,98474.25
2023-01-18T00:09:10.085Z,98474.16
2023-01-18T00:09:31.813Z,98473.25
2023-01-18T00:09:53.599Z,98474.03
2023-01-18T00:10:16.075Z,98468.69
2023-01-18T00:10:39.467Z,98473.03
2023-01-18T00:11:05.079Z,98449.09
2023-01-18T00:11:26.802Z,98460.97
2023-01-18T00:11:50.036Z,98471.97
2023-01-18T00:12:11.615Z,98471.13
2023-01-18T00:12:34.667Z,98472.06
2023-01-18T00:12:58.392Z,98469.44
2023-01-18T00:13:21.385Z,98478.25
2023-01-18T00:13:43.642Z,98469.44
2023-01-18T00:14:05.364Z,98468.59
2023-01-18T00:14:27.988Z,98470.22
2023-01-18T00:14:49.804Z,98475.47
2023-01-18T00:15:12.559Z,98447.16
2023-01-18T00:15:35.525Z,98457.47
2023-01-18T00:16:03.286Z,98471.97
2023-01-18T00:16:25.878Z,98471.13
2023-01-18T00:16:47.765Z,98469.44
2023-01-18T00:17:09.472Z,98473.84
2023-01-18T00:17:32.126Z,98468.59
2023-01-18T00:17:53.805Z,98461.81
2023-01-18T00:18:15.420Z,98471.97
2023-01-18T00:18:37.287Z,98476.38
2023-01-18T00:19:01.034Z,98474.69
2023-01-18T00:19:22.792Z,98470.25
2023-01-18T00:19:44.403Z,98460.75
2023-01-18T00:20:07.548Z,98461.66
2023-01-18T00:20:34.301Z,98464.28
2023-01-18T00:21:00.290Z,98473.69
2023-01-18T00:21:22.430Z,98472.78
2023-01-18T00:21:45.056Z,98474.50
2023-01-18T00:22:06.946Z,98472.78
2023-01-18T00:22:28.661Z,98466.72
2023-01-18T00:22:51.461Z,98473.84
2023-01-18T00:23:13.198Z,98465.31
2023-01-18T00:23:36.399Z,98473.75
2023-01-18T00:23:58.203Z,98475.47
2023-01-18T00:24:22.846Z,98471.88
2023-01-18T00:24:44.553Z,98465.09
2023-01-18T00:25:07.807Z,98469.34
2023-01-18T00:25:30.310Z,98471.13
2023-01-18T00:25:51.933Z,98473.75
2023-01-18T00:26:14.806Z,98473.84
2023-01-18T00:26:36.785Z,98464.44
2023-01-18T00:26:58.501Z,98467.72
2023-01-18T00:27:21.159Z,98473.84
2023-01-18T00:27:49.395Z,98482.69
2023-01-18T00:28:11.093Z,98477.44
2023-01-18T00:28:33.740Z,98466.16
2023-01-18T00:28:57.670Z,98469.66
2023-01-18T00:29:19.557Z,98473.94
2023-01-18T00:29:42.160Z,98480.16
2023-01-18T00:30:04.283Z,98466.22
2023-01-18T00:30:27.922Z,98478.25
2023-01-18T00:30:49.539Z,98478.25
2023-01-18T00:31:11.546Z,98478.16
2023-01-18T00:31:34.444Z,98473.75
2023-01-18T00:31:56.340Z,98482.59
2023-01-18T00:32:18.124Z,98481.56
2023-01-18T00:32:39.787Z,98477.22
2023-01-18T00:33:02.394Z,98478.25
2023-01-18T00:33:24.105Z,98480.00
2023-01-18T00:33:47.012Z,98453.47
2023-01-18T00:34:08.696Z,98480.25
2023-01-18T00:34:30.498Z,98478.63
2023-01-18T00:34:53.240Z,98474.09
2023-01-18T00:35:15.775Z,98478.34
2023-01-18T00:35:37.446Z,98475.72
2023-01-18T00:36:00.918Z,98473.19
2023-01-18T00:36:23.512Z,98476.66
2023-01-18T00:36:45.259Z,98477.53
2023-01-18T00:37:06.856Z,98479.22
2023-01-18T00:37:28.772Z,98483.59
2023-01-18T00:37:52.566Z,98478.50
2023-01-18T00:38:14.198Z,98467.31
2023-01-18T00:38:36.001Z,98460.56
2023-01-18T00:38:59.402Z,98478.50
2023-01-18T00:39:21.288Z,98481.91
2023-01-18T00:39:42.962Z,98481.06
2023-01-18T00:40:06.461Z,98478.56
2023-01-18T00:40:30.184Z,98483.91
2023-01-18T00:40:52.190Z,98469.28
2023-01-18T00:41:13.840Z,98482.94
2023-01-18T00:41:55.592Z,98481.19
2023-01-18T00:42:35.837Z,98487.28
2023-01-18T00:43:17.626Z,98477.78
2023-01-18T00:43:39.391Z,98479.81
2023-01-18T00:44:02.016Z,98484.25
2023-01-18T00:44:24.693Z,98480.00
2023-01-18T00:44:46.768Z,98488.59
2023-01-18T00:45:09.137Z,98489.59
2023-01-18T00:45:30.863Z,98485.13
2023-01-18T00:45:54.826Z,98483.50
2023-01-18T00:46:19.317Z,98481.06
2023-01-18T00:46:40.947Z,98486.31
2023-01-18T00:47:02.570Z,98484.53
2023-01-18T00:47:24.834Z,98481.06
2023-01-18T00:47:47.465Z,98481.00
2023-01-18T00:48:09.321Z,98482.69
2023-01-18T00:48:31.262Z,98487.16
2023-01-18T00:48:55.394Z,98484.66
2023-01-18T00:49:16.994Z,98479.28
2023-01-18T00:49:38.790Z,98481.97
2023-01-18T00:50:01.423Z,98464.84
2023-01-18T00:50:23.174Z,98481.13
2023-01-18T00:50:44.949Z,98483.75
2023-01-18T00:51:08.109Z,98480.34
2023-01-18T00:51:29.835Z,98480.34
2023-01-18T00:51:52.128Z,98481.25
2023-01-18T00:52:13.907Z,98478.47
2023-01-18T00:52:36.556Z,98476.84
2023-01-18T00:53:00.090Z,98479.53
2023-01-18T00:53:22.156Z,98479.59
2023-01-18T00:53:45.894Z,98476.84
2023-01-18T00:54:08.583Z,98475.09
2023-01-18T00:54:30.444Z,98477.72
2023-01-18T00:54:52.426Z,98481.13
2023-01-18T00:55:15.371Z,98482.88
2023-01-18T00:55:37.071Z,98479.28
2023-01-18T00:55:59.963Z,98472.25
2023-01-18T00:56:23.147Z,98477.63
2023-01-18T00:56:44.996Z,98481.91
2023-01-18T00:57:06.819Z,98481.00
2023-01-18T00:57:28.473Z,98481.72
2023-01-18T00:57:51.463Z,98479.16
2023-01-18T00:58:14.552Z,98471.31
2023-01-18T00:58:37.529Z,98485.31
2023-01-18T00:58:59.337Z,98475.66
2023-01-18T00:59:21.892Z,98470.50
2023-01-18T00:59:43.615Z,98481.81
2023-01-18T01:00:07.436Z,98474.22
2023-01-18T01:00:29.278Z,98481.16
2023-01-18T01:00:53.623Z,98466.72
2023-01-18T01:01:15.532Z,98476.06
2023-01-18T01:01:40.843Z,98481.31
2023-01-18T01:02:03.066Z,98481.25
2023-01-18T01:02:25.783Z,98475.44
2023-01-18T01:02:47.958Z,98483.06
2023-01-18T01:03:09.752Z,98452.25
2023-01-18T01:03:52.318Z,98457.41
2023-01-18T01:04:32.756Z,98482.09
2023-01-18T01:05:12.700Z,98482.81
2023-01-18T01:05:52.654Z,98477.72
2023-01-18T01:06:33.793Z,98489.91
2023-01-18T01:06:56.473Z,98469.41
2023-01-18T01:07:18.199Z,98485.69
2023-01-18T01:07:40.028Z,98481.44
2023-01-18T01:08:01.993Z,98481.50
2023-01-18T01:08:24.704Z,98457.63
2023-01-18T01:08:50.033Z,98468.16
2023-01-18T01:09:13.181Z,98484.28
2023-01-18T01:09:35.836Z,98489.56
2023-01-18T01:09:57.971Z,98481.75
2023-01-18T01:10:20.020Z,98489.72
2023-01-18T01:10:41.872Z,98485.38
2023-01-18T01:11:06.057Z,98448.53
2023-01-18T01:11:28.744Z,98494.03
2023-01-18T01:12:09.505Z,98486.94
2023-01-18T01:12:49.612Z,98491.16
2023-01-18T01:13:30.167Z,98493.72
2023-01-18T01:14:11.580Z,98480.03
2023-01-18T01:14:52.933Z,98499.22
2023-01-18T01:15:33.481Z,98495.03
2023-01-18T01:16:13.945Z,98490.69
2023-01-18T01:16:54.698Z,98498.50
2023-01-18T01:17:34.663Z,98495.72
2023-01-18T01:18:15.355Z,98494.88
2023-01-18T01:18:55.922Z,98496.72
2023-01-18T01:19:35.973Z,98489.84
2023-01-18T01:20:16.188Z,98498.38
2023-01-18T01:20:56.589Z,98488.00
2023-01-18T01:21:36.864Z,98487.81
2023-01-18T01:22:17.350Z,98500.78
2023-01-18T01:22:57.955Z,98494.69
2023-01-18T01:23:40.665Z,98490.28
2023-01-18T01:24:21.160Z,98498.97
2023-01-18T01:25:01.020Z,98487.41
2023-01-18T01:25:41.576Z,98490.19
2023-01-18T01:26:07.683Z,98464.53
2023-01-18T01:26:29.545Z,98492.00
2023-01-18T01:26:53.429Z,98492.88
2023-01-18T01:27:17.376Z,98483.47
2023-01-18T01:27:39.031Z,98499.94
2023-01-18T01:28:00.782Z,98500.78
2023-01-18T01:28:24.372Z,98476.00
2023-01-18T01:28:50.261Z,98493.06
2023-01-18T01:29:14.442Z,98497.44
2023-01-18T01:29:36.268Z,98495.69
2023-01-18T01:29:57.899Z,98500.94
2023-01-18T01:30:19.881Z,98500.84
2023-01-18T01:30:41.679Z,98504.34
2023-01-18T01:31:06.620Z,98494.69
2023-01-18T01:31:28.356Z,98509.47
2023-01-18T01:31:50.009Z,98499.88
2023-01-18T01:32:12.423Z,98506.91
2023-01-18T01:32:35.031Z,98505.19
2023-01-18T01:32:56.997Z,98493.25
2023-01-18T01:33:19.527Z,98513.06
2023-01-18T01:33:42.018Z,98512.22
2023-01-18T01:34:04.662Z,98510.44
2023-01-18T01:34:29.721Z,98507.75
2023-01-18T01:34:51.475Z,98506.84
2023-01-18T01:35:13.361Z,98502.50
2023-01-18T01:35:35.019Z,98515.59
2023-01-18T01:35:58.370Z,98510.25
2023-01-18T01:36:25.742Z,98500.94
2023-01-18T01:36:49.288Z,98511.19
2023-01-18T01:37:11.948Z,98511.19
2023-01-18T01:37:33.700Z,98512.88
2023-01-18T01:37:55.474Z,98518.03
2023-01-18T01:38:17.115Z,98510.19
2023-01-18T01:38:39.406Z,98511.91
2023-01-18T01:39:02.303Z,98508.44
2023-01-18T01:39:24.441Z,98514.34
2023-01-18T01:39:46.303Z,98515.19
2023-01-18T01:40:09.348Z,98516.06
2023-01-18T01:40:31.016Z,98515.16
2023-01-18T01:40:57.808Z,98510.63
2023-01-18T01:41:25.225Z,98517.59
2023-01-18T01:41:46.832Z,98512.44
2023-01-18T01:42:12.253Z,98510.41
2023-01-18T01:42:44.093Z,98515.66
2023-01-18T01:43:09.702Z,98515.47
2023-01-18T01:43:40.523Z,98512.00
2023-01-18T01:44:24.663Z,98518.06
2023-01-18T01:44:50.436Z,98515.53
2023-01-18T01:45:12.313Z,98514.63
2023-01-18T01:45:34.240Z,98518.09
2023-01-18T01:45:57.214Z,98515.53
2023-01-18T01:46:35.858Z,98512.31
2023-01-18T01:47:00.305Z,98450.66
2023-01-18T01:47:42.471Z,98509.50
2023-01-18T01:48:04.711Z,98519.94
2023-01-18T01:48:26.320Z,98519.00
2023-01-18T01:48:49.576Z,98516.44
2023-01-18T01:49:16.769Z,98478.16
2023-01-18T01:49:42.746Z,98515.66
2023-01-18T01:50:14.899Z,98455.78
2023-01-18T01:50:39.309Z,98510.41
2023-01-18T01:51:02.814Z,98510.66
2023-01-18T01:51:24.660Z,98515.78
2023-01-18T01:51:48.649Z,98518.34
2023-01-18T01:52:15.477Z,98513.09
2023-01-18T01:52:42.741Z,98523.66
2023-01-18T01:53:05.009Z,98515.00
2023-01-18T01:53:27.587Z,98510.66
2023-01-18T01:53:51.177Z,98518.50
2023-01-18T01:54:18.400Z,98522.09
2023-01-18T01:54:43.905Z,98514.41
2023-01-18T01:55:12.756Z,98516.97
2023-01-18T01:55:38.483Z,98517.88
2023-01-18T01:56:00.733Z,98514.34
2023-01-18T01:56:22.454Z,98512.69
2023-01-18T01:56:48.263Z,98518.75
2023-01-18T01:57:15.319Z,98521.44
2023-01-18T01:57:41.261Z,98522.38
2023-01-18T01:58:07.734Z,98518.88
2023-01-18T01:58:30.824Z,98524.13
2023-01-18T01:58:56.582Z,98513.50
2023-01-18T01:59:19.291Z,98523.09
2023-01-18T01:59:44.957Z,98519.59
2023-01-18T02:00:14.540Z,98431.72
2023-01-18T02:00:36.642Z,98510.00
2023-01-18T02:00:58.581Z,98520.47
2023-01-18T02:01:20.326Z,98506.75
2023-01-18T02:01:44.456Z,98501.47
2023-01-18T02:02:07.102Z,98520.41
2023-01-18T02:02:30.930Z,98517.84
2023-01-18T02:02:56.207Z,98523.09
2023-01-18T02:03:19.301Z,98516.91
2023-01-18T02:03:42.569Z,98520.47
2023-01-18T02:04:04.812Z,98523.13
2023-01-18T02:04:27.880Z,98519.84
2023-01-18T02:04:53.639Z,98525.75
2023-01-18T02:05:18.481Z,98519.47
2023-01-18T02:05:43.923Z,98525.56
2023-01-18T02:06:14.782Z,98522.94
2023-01-18T02:06:37.936Z,98511.09
2023-01-18T02:07:00.736Z,98519.59
2023-01-18T02:07:26.396Z,98522.09
2023-01-18T02:07:49.093Z,98522.22
2023-01-18T02:08:22.416Z,98501.78
2023-01-18T02:08:47.228Z,98501.13
2023-01-18T02:09:12.672Z,98525.00
2023-01-18T02:09:35.391Z,98523.28
2023-01-18T02:09:57.785Z,98533.78
2023-01-18T02:10:19.762Z,98520.84
2023-01-18T02:10:41.388Z,98530.25
2023-01-18T02:11:03.157Z,98533.78
2023-01-18T02:11:26.048Z,98538.13
2023-01-18T02:11:47.800Z,98532.97
2023-01-18T02:12:09.573Z,98532.94
2023-01-18T02:12:32.847Z,98534.56
2023-01-18T02:13:00.223Z,98537.19
2023-01-18T02:13:24.766Z,98540.75
2023-01-18T02:13:46.419Z,98537.31
2023-01-18T02:14:12.708Z,98536.47
2023-01-18T02:14:35.913Z,98528.25
2023-01-18T02:14:59.345Z,98536.59
2023-01-18T02:15:31.403Z,98541.84
2023-01-18T02:15:59.631Z,98532.22
2023-01-18T02:16:36.151Z,98541.84
2023-01-18T02:17:15.158Z,98543.53
2023-01-18T02:17:55.616Z,98540.84
2023-01-18T02:18:25.191Z,98544.22
2023-01-18T02:18:55.130Z,98540.09
2023-01-18T02:19:46.909Z,98543.44
2023-01-18T02:20:42.273Z,98531.41
2023-01-18T02:21:12.983Z,98542.44
2023-01-18T02:21:40.613Z,98546.00
2023-01-18T02:22:10.123Z,98544.28
2023-01-18T02:22:46.034Z,98529.88
2023-01-18T02:23:32.213Z,98542.63
2023-01-18T02:24:20.150Z,98538.38
2023-01-18T02:25:17.376Z,98546.31
2023-01-18T02:26:08.358Z,98539.34
2023-01-18T02:26:52.224Z,98541.19
2023-01-18T02:27:23.622Z,98547.28
2023-01-18T02:27:51.526Z,98536.22
2023-01-18T02:28:17.028Z,98548.31
2023-01-18T02:28:41.288Z,98541.38
2023-01-18T02:29:14.644Z,98544.06
2023-01-18T02:30:03.809Z,98544.06
2023-01-18T02:30:33.517Z,98551.69
2023-01-18T02:31:02.373Z,98545.69
2023-01-18T02:31:27.080Z,98540.72
2023-01-18T02:32:02.931Z,98544.97
2023-01-18T02:32:36.792Z,98540.66
2023-01-18T02:33:06.414Z,98522.09
2023-01-18T02:33:33.142Z,98549.47
2023-01-18T02:34:00.874Z,98554.66
2023-01-18T02:34:31.792Z,98546.94
2023-01-18T02:35:05.370Z,98543.47
2023-01-18T02:35:36.946Z,98546.03
2023-01-18T02:36:05.245Z,98547.88
2023-01-18T02:36:36.969Z,98552.31
2023-01-18T02:37:07.293Z,98552.38
2023-01-18T02:37:40.761Z,98540.25
2023-01-18T02:38:09.797Z,98533.31
2023-01-18T02:38:37.973Z,98555.00
2023-01-18T02:39:05.818Z,98553.22
2023-01-18T02:39:38.265Z,98554.94
2023-01-18T02:40:14.771Z,98557.56
2023-01-18T02:40:45.573Z,98555.66
2023-01-18T02:41:14.232Z,98559.16
2023-01-18T02:42:04.843Z,98556.53
2023-01-18T02:42:46.654Z,98560.00
2023-01-18T02:43:30.135Z,98547.06
2023-01-18T02:44:12.052Z,98554.75
2023-01-18T02:44:59.400Z,98563.72
2023-01-18T02:45:44.723Z,98556.59
2023-01-18T02:46:30.387Z,98556.75
2023-01-18T02:46:53.073Z,98557.56
2023-01-18T02:47:16.050Z,98564.53
2023-01-18T02:47:38.045Z,98537.19
2023-01-18T02:48:00.832Z,98561.25
2023-01-18T02:48:25.674Z,98560.38
2023-01-18T02:48:49.207Z,98550.88
2023-01-18T02:49:18.793Z,98565.50
2023-01-18T02:49:40.652Z,98559.38
2023-01-18T02:50:03.449Z,98561.09
2023-01-18T02:50:27.604Z,98563.88
2023-01-18T02:50:50.048Z,98563.88
2023-01-18T02:51:12.013Z,98565.50
2023-01-18T02:51:35.464Z,98567.22
2023-01-18T02:52:01.397Z,98568.13
2023-01-18T02:52:39.055Z,98574.22
2023-01-18T02:53:00.733Z,98564.59
2023-01-18T02:53:23.352Z,98563.72
2023-01-18T02:53:46.876Z,98567.22
2023-01-18T02:54:10.089Z,98552.75
2023-01-18T02:54:36.273Z,98568.13
2023-01-18T02:54:59.024Z,98569.88
2023-01-18T02:55:31.490Z,98573.47
2023-01-18T02:55:59.408Z,98564.72
2023-01-18T02:56:26.732Z,98571.69
2023-01-18T02:56:52.748Z,98567.25
2023-01-18T02:57:16.037Z,98531.44
2023-01-18T02:57:37.837Z,98569.97
2023-01-18T02:58:05.008Z,98568.38
2023-01-18T02:58:32.855Z,98556.94
2023-01-18T02:59:03.622Z,98572.47
2023-01-18T02:59:29.287Z,98576.00
2023-01-18T02:59:55.270Z,98571.69
2023-01-18T03:00:19.457Z,98569.88
2023-01-18T03:00:48.088Z,98568.97
2023-01-18T03:01:14.551Z,98555.25
2023-01-18T03:01:41.648Z,98576.81
2023-01-18T03:02:09.587Z,98570.69
2023-01-18T03:02:32.278Z,98569.84
2023-01-18T03:02:54.698Z,98575.03
2023-01-18T03:03:18.691Z,98552.81
2023-01-18T03:03:44.211Z,98570.66
2023-01-18T03:04:11.858Z,98578.53
2023-01-18T03:04:37.185Z,98575.94
2023-01-18T03:04:59.127Z,98563.81
2023-01-18T03:05:24.172Z,98568.97
2023-01-18T03:05:49.472Z,98573.38
2023-01-18T03:06:11.145Z,98575.94
2023-01-18T03:06:33.481Z,98574.13
2023-01-18T03:07:03.781Z,98573.31
2023-01-18T03:07:32.582Z,98568.22
2023-01-18T03:08:06.139Z,98574.41
2023-01-18T03:08:36.286Z,98512.03
2023-01-18T03:08:59.564Z,98576.19
2023-01-18T03:09:25.851Z,98577.91
2023-01-18T03:09:48.201Z,98577.91
2023-01-18T03:10:13.224Z,98575.31
2023-01-18T03:10:44.960Z,98549.66
2023-01-18T03:11:16.009Z,98589.31
2023-01-18T03:11:45.399Z,98574.56
2023-01-18T03:12:19.317Z,98581.38
2023-01-18T03:12:52.122Z,98582.25
2023-01-18T03:13:18.430Z,98546.13
2023-01-18T03:13:54.034Z,98578.81
2023-01-18T03:14:31.707Z,98575.28
2023-01-18T03:15:02.498Z,98575.41
2023-01-18T03:15:36.680Z,98559.16
2023-01-18T03:16:09.385Z,98557.44
2023-01-18T03:16:40.824Z,98562.94
2023-01-18T03:17:07.539Z,98576.50
2023-01-18T03:17:39.218Z,98581.75
2023-01-18T03:18:08.949Z,98584.31
2023-01-18T03:18:39.077Z,98580.03
2023-01-18T03:19:06.121Z,98579.91
2023-01-18T03:19:55.983Z,98583.38
2023-01-18T03:20:25.641Z,98580.75
2023-01-18T03:20:54.439Z,98584.31
2023-01-18T03:21:17.372Z,98580.88
2023-01-18T03:21:45.158Z,98578.25
2023-01-18T03:22:06.892Z,98579.91
2023-01-18T03:22:51.509Z,98584.25
2023-01-18T03:23:36.086Z,98578.09
2023-01-18T03:24:00.205Z,98580.75
2023-01-18T03:24:23.493Z,98579.13
2023-01-18T03:24:47.087Z,98578.25
2023-01-18T03:25:13.059Z,98578.31
2023-01-18T03:25:37.759Z,98579.16
2023-01-18T03:26:01.088Z,98573.91
2023-01-18T03:26:25.789Z,98576.59
2023-01-18T03:26:53.293Z,98574.06
2023-01-18T03:27:33.473Z,98575.50
2023-01-18T03:28:16.291Z,98585.09
2023-01-18T03:29:00.677Z,98580.72
2023-01-18T03:29:43.667Z,98582.47
2023-01-18T03:30:25.347Z,98580.75
2023-01-18T03:31:08.657Z,98580.88
2023-01-18T03:31:56.326Z,98554.31
2023-01-18T03:32:37.907Z,98589.56
2023-01-18T03:33:18.474Z,98586.94
2023-01-18T03:33:47.236Z,98586.88
2023-01-18T03:34:18.328Z,98578.25
2023-01-18T03:34:48.401Z,98592.19
2023-01-18T03:35:15.654Z,98589.63
2023-01-18T03:35:39.309Z,98595.78
2023-01-18T03:36:03.124Z,98591.34
2023-01-18T03:36:28.809Z,98583.38
2023-01-18T03:36:52.994Z,98592.13
2023-01-18T03:37:18.143Z,98587.72
2023-01-18T03:37:42.701Z,98585.06
2023-01-18T03:38:05.549Z,98586.75
2023-01-18T03:38:29.753Z,98594.69
2023-01-18T03:38:56.764Z,98591.16
2023-01-18T03:39:24.422Z,98587.53
2023-01-18T03:39:51.856Z,98592.69
2023-01-18T03:40:17.033Z,98590.06
2023-01-18T03:40:38.786Z,98585.66
2023-01-18T03:41:02.113Z,98590.13
2023-01-18T03:41:30.103Z,98590.13
2023-01-18T03:41:56.067Z,98588.34
2023-01-18T03:42:22.441Z,98590.91
2023-01-18T03:42:51.110Z,98593.53
2023-01-18T03:43:17.007Z,98590.91
2023-01-18T03:43:41.652Z,98581.63
2023-01-18T03:44:09.474Z,98588.59
2023-01-18T03:44:36.729Z,98591.03
2023-01-18T03:45:06.622Z,98597.94
2023-01-18T03:45:33.089Z,98592.63
2023-01-18T03:45:56.268Z,98595.19
2023-01-18T03:46:22.512Z,98557.50
2023-01-18T03:46:44.602Z,98596.03
2023-01-18T03:47:07.794Z,98596.03
2023-01-18T03:47:31.542Z,98597.94
2023-01-18T03:47:54.894Z,98598.78
2023-01-18T03:48:17.424Z,98588.59
2023-01-18T03:48:39.101Z,98585.09
2023-01-18T03:49:02.761Z,98601.41
2023-01-18T03:49:28.557Z,98584.19
2023-01-18T03:49:52.256Z,98597.09
2023-01-18T03:50:14.861Z,98599.72
2023-01-18T03:50:44.423Z,98601.41
2023-01-18T03:51:16.609Z,98604.78
2023-01-18T03:51:48.866Z,98605.69
2023-01-18T03:52:17.550Z,98596.91
2023-01-18T03:52:43.419Z,98585.00
2023-01-18T03:53:12.381Z,98596.94
2023-01-18T03:53:39.373Z,98606.59
2023-01-18T03:54:06.845Z,98601.41
2023-01-18T03:54:36.702Z,98607.59
2023-01-18T03:55:03.915Z,98599.81
2023-01-18T03:55:34.828Z,98606.78
2023-01-18T03:56:02.835Z,98604.97
2023-01-18T03:56:29.413Z,98603.25
2023-01-18T03:56:57.609Z,98601.53
2023-01-18T03:57:26.236Z,98606.81
2023-01-18T03:57:54.151Z,98605.81
2023-01-18T03:58:23.641Z,98603.13
2023-01-18T03:58:47.601Z,98608.44
2023-01-18T03:59:10.042Z,98609.28
2023-01-18T03:59:40.013Z,98617.16
2023-01-18T04:00:04.092Z,98609.34
2023-01-18T04:00:34.140Z,98592.13
2023-01-18T04:00:57.253Z,98603.25
2023-01-18T04:01:19.690Z,98605.88
2023-01-18T04:01:44.591Z,98614.53
2023-01-18T04:02:07.979Z,98607.50
2023-01-18T04:02:30.626Z,98611.91
2023-01-18T04:02:52.679Z,98611.13
2023-01-18T04:03:14.582Z,98606.78
2023-01-18T04:03:37.111Z,98615.47
2023-01-18T04:03:58.883Z,98608.38
2023-01-18T04:04:21.737Z,98596.41
2023-01-18T04:04:43.521Z,98608.44
2023-01-18T04:05:06.749Z,98612.72
2023-01-18T04:05:29.945Z,98603.44
2023-01-18T04:05:52.037Z,98598.22
2023-01-18T04:06:15.019Z,98606.06
2023-01-18T04:06:39.179Z,98615.34
2023-01-18T04:07:01.093Z,98616.16
2023-01-18T04:07:23.360Z,98593.78
2023-01-18T04:07:47.841Z,98614.72
2023-01-18T04:08:11.723Z,98617.97
2023-01-18T04:08:33.550Z,98615.34
2023-01-18T04:08:55.670Z,98600.81
2023-01-18T04:09:18.401Z,98605.91
2023-01-18T04:09:40.127Z,98617.97
2023-01-18T04:10:02.131Z,98616.31
2023-01-18T04:10:23.797Z,98619.78
2023-01-18T04:10:46.634Z,98604.47
2023-01-18T04:11:08.397Z,98623.22
2023-01-18T04:11:30.202Z,98632.81
2023-01-18T04:11:52.366Z,98623.16
2023-01-18T04:12:15.326Z,98622.25
2023-01-18T04:12:36.957Z,98611.97
2023-01-18T04:12:58.914Z,98624.78
2023-01-18T04:13:20.906Z,98631.81
2023-01-18T04:13:42.709Z,98617.09
2023-01-18T04:14:06.127Z,98628.19
2023-01-18T04:14:28.044Z,98627.28
2023-01-18T04:14:51.517Z,98631.63
2023-01-18T04:15:14.376Z,98629.81
2023-01-18T04:15:36.055Z,98627.94
2023-01-18T04:15:59.713Z,98631.44
2023-01-18T04:16:21.908Z,98627.03
2023-01-18T04:16:44.239Z,98603.13
2023-01-18T04:17:05.910Z,98612.53
2023-01-18T04:17:30.934Z,98629.63
2023-01-18T04:17:53.655Z,98626.19
2023-01-18T04:18:15.313Z,98628.88
2023-01-18T04:18:37.087Z,98627.94
2023-01-18T04:19:00.139Z,98631.44
2023-01-18T04:19:21.897Z,98632.28
2023-01-18T04:19:44.030Z,98635.84
2023-01-18T04:20:07.529Z,98631.50
2023-01-18T04:20:30.605Z,98632.34
2023-01-18T04:20:56.266Z,98635.91
2023-01-18T04:21:18.101Z,98635.97
2023-01-18T04:21:39.816Z,98632.47
2023-01-18T04:22:02.425Z,98639.50
2023-01-18T04:22:24.305Z,98633.44
2023-01-18T04:22:51.620Z,98616.50
2023-01-18T04:23:13.234Z,98637.00
2023-01-18T04:23:34.896Z,98644.94
2023-01-18T04:23:59.869Z,98631.81
2023-01-18T04:24:21.636Z,98627.66
2023-01-18T04:24:43.398Z,98638.84
2023-01-18T04:25:05.847Z,98639.78
2023-01-18T04:25:27.738Z,98627.56
2023-01-18T04:25:50.770Z,98642.41
2023-01-18T04:26:15.236Z,98639.81
2023-01-18T04:26:37.233Z,98638.06
2023-01-18T04:27:00.415Z,98632.13
2023-01-18T04:27:24.278Z,98636.56
2023-01-18T04:27:46.293Z,98622.88
2023-01-18T04:28:09.439Z,98629.03
2023-01-18T04:28:34.431Z,98635.66
2023-01-18T04:28:56.121Z,98639.31
2023-01-18T04:29:17.802Z,98605.94
2023-01-18T04:29:39.596Z,98635.72
2023-01-18T04:30:06.224Z,98630.41
2023-01-18T04:30:27.973Z,98640.88
2023-01-18T04:30:49.997Z,98626.16
2023-01-18T04:31:11.711Z,98646.97
2023-01-18T04:31:34.455Z,98640.91
2023-01-18T04:31:56.250Z,98640.03
2023-01-18T04:32:17.953Z,98633.25
2023-01-18T04:32:39.987Z,98634.75
2023-01-18T04:33:02.585Z,98642.69
2023-01-18T04:33:26.749Z,98642.69
2023-01-18T04:33:51.423Z,98640.03
2023-01-18T04:34:13.285Z,98634.88
2023-01-18T04:34:36.049Z,98643.53
2023-01-18T04:34:57.784Z,98641.72
2023-01-18T04:35:19.482Z,98645.19
2023-01-18T04:35:41.093Z,98631.41
2023-01-18T04:36:03.989Z,98641.59
2023-01-18T04:36:25.756Z,98647.75
2023-01-18T04:36:48.499Z,98641.81
2023-01-18T04:37:10.156Z,98648.56
2023-01-18T04:37:34.012Z,98647.75
2023-01-18T04:37:55.720Z,98620.31
2023-01-18T04:38:17.497Z,98647.66
2023-01-18T04:38:40.122Z,98645.97
2023-01-18T04:39:01.838Z,98642.50
2023-01-18T04:39:23.631Z,98645.97
2023-01-18T04:39:47.474Z,98643.25
2023-01-18T04:40:10.351Z,98645.88
2023-01-18T04:40:32.591Z,98635.59
2023-01-18T04:40:54.457Z,98644.22
2023-01-18T04:41:16.159Z,98634.78
2023-01-18T04:41:38.836Z,98655.56
2023-01-18T04:42:00.500Z,98645.97
2023-01-18T04:42:25.490Z,98645.13
2023-01-18T04:42:52.620Z,98649.50
2023-01-18T04:43:15.298Z,98648.66
2023-01-18T04:43:37.071Z,98651.22
2023-01-18T04:43:58.883Z,98645.97
2023-01-18T04:44:21.484Z,98652.09
2023-01-18T04:44:43.224Z,98644.25
2023-01-18T04:45:07.691Z,98645.13
2023-01-18T04:45:29.369Z,98649.50
2023-01-18T04:45:54.512Z,98644.22
2023-01-18T04:46:17.418Z,98655.63
2023-01-18T04:46:39.580Z,98655.75
2023-01-18T04:47:01.176Z,98655.56
2023-01-18T04:47:23.432Z,98652.94
2023-01-18T04:47:46.110Z,98653.84
2023-01-18T04:48:08.547Z,98650.31
2023-01-18T04:48:30.375Z,98638.41
2023-01-18T04:48:53.096Z,98652.22
2023-01-18T04:49:17.743Z,98649.50
2023-01-18T04:49:39.409Z,98651.28
2023-01-18T04:50:01.125Z,98649.47
2023-01-18T04:50:22.994Z,98656.47
2023-01-18T04:50:46.606Z,98655.63
2023-01-18T04:51:12.852Z,98662.63
2023-01-18T04:51:35.388Z,98660.88
2023-01-18T04:51:57.104Z,98657.47
2023-01-18T04:52:20.272Z,98655.72
2023-01-18T04:52:42.163Z,98661.97
2023-01-18T04:53:03.900Z,98655.88
2023-01-18T04:53:25.536Z,98664.53
2023-01-18T04:53:51.090Z,98560.22
2023-01-18T04:54:15.541Z,98665.44
2023-01-18T04:54:37.470Z,98670.78
2023-01-18T04:54:59.057Z,98665.56
2023-01-18T04:55:21.724Z,98670.78
2023-01-18T04:55:43.724Z,98673.41
2023-01-18T04:56:05.670Z,98661.97
2023-01-18T04:56:27.670Z,98663.69
2023-01-18T04:56:50.294Z,98662.81
2023-01-18T04:57:12.225Z,98667.22
2023-01-18T04:57:34.314Z,98662.94
2023-01-18T04:57:56.675Z,98658.72
2023-01-18T04:58:19.432Z,98667.47
2023-01-18T04:58:41.268Z,98667.38
2023-01-18T04:59:03.212Z,98657.19
2023-01-18T04:59:26.131Z,98662.13
2023-01-18T04:59:47.984Z,98662.13
2023-01-18T05:00:14.381Z,98676.19
2023-01-18T05:00:39.654Z,98668.19
2023-01-18T05:01:02.702Z,98669.97
2023-01-18T05:01:25.424Z,98672.63
2023-01-18T05:01:47.324Z,98670.00
2023-01-18T05:02:09.038Z,98672.63
2023-01-18T05:02:30.710Z,98670.88
2023-01-18T05:02:53.316Z,98675.25
2023-01-18T05:03:14.901Z,98676.97